ロサンゼルス の空港の天気 - METARとTAF

ロサンゼルス国際空港 ( KLAX / LAX ) - アメリカ カリフォルニア州ロサンゼルス
飛行場実況気象(Metar)
観測時間12/16 14:53 PST (12/16 22:53 UTC)
風向・風速西南西 5m/s
視程10km以上
天気現象
少しの雲 雲底高度 610m
少しの雲 雲底高度 6100m
全天の4割程度の雲 雲底高度 7620m
気温17.2℃
湿度70%
気圧1019.1hPa
METARKLAX 162253Z 24009KT 10SM FEW020 FEW200 SCT250 17/12 A3010 RMK AO2 SLP191 T01720117
過去の天気等 Google飛行場航空写真 Wunderground天気予報

過去48時間のMETAR

飛行場予報(TAF)
発表時間: 12/16 13:02 PST (12/16 21:02 UTC)
予報対象時間: 16日13時 PST ~ 17日16時 PST
風向・風速西 4m/s
視程10km以上
少しの雲 雲底高度 910m
全天の4割程度の雲 雲底高度 6100m
16日20時 PST から
風向・風速西 3m/s
視程10km以上
全天の8割程度の雲 雲底高度 4570m
17日0時 PST から
風向・風速不定 2m/s
視程10km以上
全天の8割程度の雲 雲底高度 1520m
全天を覆う雲 雲底高度 4570m
17日5時 PST から
風向・風速不定 2m/s
視程10km以上
天気現象周辺でしゅう雨
全天の8割程度の雲 雲底高度 1220m
全天を覆う雲 雲底高度 2440m
17日12時 PST から
風向・風速西 4m/s
視程10km以上
全天の8割程度の雲 雲底高度 1830m
KLAX 162102Z 1621/1724 27008KT P6SM FEW030 SCT200
FM170400 27005KT P6SM BKN150
FM170800 VRB04KT P6SM BKN050 OVC150
FM171300 VRB03KT P6SM VCSH BKN040 OVC080
FM172000 26008KT P6SM BKN060